Time;durP1;ratioP1;P1;durP2;ratioP2;P2;SDS_P1;SDS_P2;PMS_P1;PMS_P2;Temp;Humidity;BMP_temperature;BMP_pressure;BME280_temperature;BME280_humidity;BME280_pressure;Samples;Min_cycle;Max_cycle;Signal;HPM_P1;HPM_P2
2022/05/15 00:02:14;;;;;;;;;;;;;;;13.26;64.16;101929.81;5075134;28;20491;-64
2022/05/15 00:04:45;;;;;;;28.15;11.25;;;;;;;13.14;65.83;101931.34;5074020;28;19908;-64
2022/05/15 00:07:10;;;;;;;29.33;11.75;;;;;;;13.05;65.80;101922.84;5074551;28;20046;-63
2022/05/15 00:09:36;;;;;;;24.95;10.75;;;;;;;13.11;65.74;101930.00;5056016;28;20524;-64
2022/05/15 00:12:03;;;;;;;24.88;11.88;;;;;;;12.98;65.85;101922.38;5074227;28;20074;-64
2022/05/15 00:14:29;;;;;;;27.70;11.68;;;;;;;13.07;65.95;101929.78;5072742;28;20070;-65
2022/05/15 00:16:55;;;;;;;26.08;10.63;;;;;;;13.05;65.87;101936.72;5073088;28;20119;-64
2022/05/15 00:19:20;;;;;;;26.10;10.75;;;;;;;13.08;65.65;101938.94;5074291;28;20428;-64
2022/05/15 00:21:45;;;;;;;27.25;11.13;;;;;;;13.07;65.65;101938.13;5073881;28;20032;-64
2022/05/15 00:24:11;;;;;;;25.23;10.60;;;;;;;12.90;65.66;101898.84;5072121;28;20028;-63
2022/05/15 00:26:36;;;;;;;26.40;10.27;;;;;;;13.02;65.52;101926.22;5073446;28;20052;-63
2022/05/15 00:29:02;;;;;;;27.92;10.52;;;;;;;12.95;65.33;101919.06;5073829;28;20024;-64
2022/05/15 00:31:28;;;;;;;27.58;11.02;;;;;;;12.83;65.82;101890.06;5073891;28;20024;-63
2022/05/15 00:33:53;;;;;;;26.75;10.32;;;;;;;13.03;65.95;101925.94;5072216;28;20369;-64
2022/05/15 00:36:19;;;;;;;23.20;10.35;;;;;;;12.99;65.81;101918.47;5072877;28;20166;-64
2022/05/15 00:38:44;;;;;;;26.58;10.50;;;;;;;12.91;66.31;101906.91;5072475;28;20490;-65
2022/05/15 00:41:11;;;;;;;28.33;10.88;;;;;;;12.97;66.13;101918.78;5073868;28;20516;-65
2022/05/15 00:43:47;;;;;;;27.23;10.40;;;;;;;12.96;65.92;101917.13;5072395;28;20039;-64
2022/05/15 00:46:22;;;;;;;26.73;10.02;;;;;;;12.84;66.46;101903.66;5072530;28;20046;-64
2022/05/15 00:48:49;;;;;;;28.70;11.40;;;;;;;12.89;66.70;101923.03;5073787;28;20101;-64
2022/05/15 00:51:42;;;;;;;28.88;10.80;;;;;;;12.90;65.89;101913.59;5072573;28;20028;-63
2022/05/15 00:54:30;;;;;;;27.92;10.52;;;;;;;12.87;66.78;101914.16;5072126;28;20033;-64
2022/05/15 00:57:03;;;;;;;25.42;10.07;;;;;;;12.86;66.81;101917.25;5058563;28;20041;-64
2022/05/15 00:59:32;;;;;;;28.02;11.00;;;;;;;12.73;66.57;101886.28;5072411;28;20044;-64
2022/05/15 01:01:57;;;;;;;26.85;10.48;;;;;;;12.77;66.74;101904.03;5072048;28;20032;-63
2022/05/15 01:04:23;;;;;;;26.05;10.00;;;;;;;12.74;66.76;101893.50;5073346;28;20417;-63
2022/05/15 01:06:49;;;;;;;28.42;10.40;;;;;;;12.83;66.34;101906.72;5073204;28;20035;-64
2022/05/15 01:09:14;;;;;;;25.92;10.23;;;;;;;12.76;67.02;101902.38;5071706;28;20024;-65
2022/05/15 01:11:42;;;;;;;24.52;10.20;;;;;;;12.76;67.17;101915.41;5071850;28;20036;-63
2022/05/15 01:14:10;;;;;;;26.55;10.13;;;;;;;12.74;67.19;101909.34;5071336;28;20044;-64
2022/05/15 01:16:37;;;;;;;29.58;10.25;;;;;;;12.71;67.33;101912.69;5071159;28;20032;-64
2022/05/15 01:19:03;;;;;;;26.50;9.95;;;;;;;12.70;67.40;101911.03;5071581;28;20079;-64
2022/05/15 01:21:40;;;;;;;27.98;10.48;;;;;;;12.60;67.46;101896.16;5071490;28;20030;-64
2022/05/15 01:24:07;;;;;;;26.63;10.15;;;;;;;12.69;67.19;101904.66;5072634;28;20037;-64
2022/05/15 01:26:35;;;;;;;27.23;10.43;;;;;;;12.67;67.62;101914.38;5071334;28;20135;-64
2022/05/15 01:29:01;;;;;;;27.85;10.70;;;;;;;12.59;68.01;101908.38;5071511;28;20032;-64
2022/05/15 01:31:26;;;;;;;26.45;11.02;;;;;;;12.50;67.78;101903.75;5071368;28;20025;-64
2022/05/15 01:33:52;;;;;;;27.23;10.73;;;;;;;12.53;67.84;101911.47;5054644;28;20373;-63
2022/05/15 01:36:21;;;;;;;25.15;10.77;;;;;;;12.52;68.03;101912.59;5071523;28;20028;-64
2022/05/15 01:38:47;;;;;;;24.35;10.25;;;;;;;12.51;68.08;101917.34;5071429;28;20032;-64
2022/05/15 01:41:12;;;;;;;26.55;10.88;;;;;;;12.45;68.35;101907.41;5071730;28;20059;-63
2022/05/15 01:43:40;;;;;;;27.05;10.38;;;;;;;12.33;68.33;101889.22;5071474;28;20059;-63
2022/05/15 01:46:06;;;;;;;24.70;9.93;;;;;;;12.39;68.45;101909.41;5071310;28;20028;-64
2022/05/15 01:48:32;;;;;;;29.08;10.57;;;;;;;12.32;68.54;101895.88;5071281;28;20047;-64
2022/05/15 01:50:58;;;;;;;30.42;11.07;;;;;;;12.39;68.65;101911.34;5072431;28;20032;-64
2022/05/15 01:53:23;;;;;;;27.88;10.77;;;;;;;12.36;68.55;101906.41;5070509;28;20360;-64
2022/05/15 01:55:50;;;;;;;27.88;11.27;;;;;;;12.29;69.16;101907.53;5070798;28;20110;-65
2022/05/15 01:58:16;;;;;;;30.00;10.68;;;;;;;12.28;69.18;101899.53;5072068;28;20077;-65
2022/05/15 02:00:41;;;;;;;29.38;11.52;;;;;;;12.24;69.39;101907.59;5072653;28;20063;-64
2022/05/15 02:03:06;;;;;;;30.67;11.10;;;;;;;12.04;69.33;101878.13;5072525;28;20059;-64
2022/05/15 02:05:32;;;;;;;27.55;10.80;;;;;;;12.13;69.40;101894.94;5072287;28;20119;-64
2022/05/15 02:07:57;;;;;;;26.70;10.73;;;;;;;12.00;69.27;101871.47;5072258;28;20033;-65
2022/05/15 02:10:22;;;;;;;25.30;10.65;;;;;;;12.10;69.50;101893.59;5072133;28;20456;-65
2022/05/15 02:12:48;;;;;;;27.52;10.65;;;;;;;12.13;69.47;101906.03;5071897;28;20498;-64
2022/05/15 02:15:14;;;;;;;26.58;10.60;;;;;;;12.09;69.94;101896.66;5071999;28;20033;-65
2022/05/15 02:17:40;;;;;;;27.83;11.07;;;;;;;12.06;70.42;101888.91;5072260;28;20113;-63
2022/05/15 02:20:07;;;;;;;26.40;10.50;;;;;;;12.05;70.01;101893.63;5070855;28;20382;-63
2022/05/15 02:22:33;;;;;;;30.17;11.38;;;;;;;12.01;69.97;101898.91;5070630;28;20043;-64
2022/05/15 02:24:58;;;;;;;27.70;10.52;;;;;;;11.94;70.47;101890.06;5070912;28;20384;-62
2022/05/15 02:27:24;;;;;;;29.45;10.50;;;;;;;11.90;70.24;101882.63;5071897;28;20032;-63
2022/05/15 02:29:49;;;;;;;26.55;11.18;;;;;;;11.85;70.26;101878.78;5071779;28;20456;-64
2022/05/15 02:32:14;;;;;;;27.95;10.50;;;;;;;11.73;70.33;101867.25;5070657;28;20031;-63
2022/05/15 02:34:40;;;;;;;28.40;10.52;;;;;;;11.70;70.75;101865.88;5071961;28;20043;-63
2022/05/15 02:37:05;;;;;;;26.15;10.50;;;;;;;11.81;70.34;101885.19;5070379;28;20480;-63
2022/05/15 02:39:31;;;;;;;27.13;10.57;;;;;;;11.74;70.42;101881.91;5070429;28;20063;-63
2022/05/15 02:41:56;;;;;;;29.75;10.98;;;;;;;11.87;70.58;101900.69;5071728;28;20028;-63
2022/05/15 02:44:22;;;;;;;27.08;10.52;;;;;;;11.85;70.61;101900.13;5071777;28;20349;-64
2022/05/15 02:46:47;;;;;;;28.25;10.63;;;;;;;11.73;70.81;101889.41;5071572;28;20029;-64
2022/05/15 02:51:56;;;;;;;28.33;10.80;;;;;;;11.63;70.85;101881.16;5072273;28;20110;-63
2022/05/15 02:54:22;;;;;;;26.08;11.05;;;;;;;11.72;71.02;101890.53;5071975;28;20035;-63
2022/05/15 02:56:48;;;;;;;26.80;10.48;;;;;;;11.52;71.48;101869.34;5074529;28;20376;-64
2022/05/15 02:59:14;;;;;;;26.00;10.90;;;;;;;11.52;71.81;101878.47;5074605;28;20031;-64
2022/05/15 03:01:39;;;;;;;25.83;10.27;;;;;;;11.51;71.77;101884.31;5074955;28;20028;-64
2022/05/15 03:04:05;;;;;;;28.52;10.73;;;;;;;11.41;72.60;101864.97;5075959;28;20025;-64
2022/05/15 03:06:30;;;;;;;30.55;11.48;;;;;;;11.29;72.63;101855.06;5075593;28;20381;-65
2022/05/15 03:08:57;;;;;;;26.02;10.35;;;;;;;11.41;72.31;101876.88;5075504;28;20029;-66
2022/05/15 03:11:23;;;;;;;29.92;11.27;;;;;;;11.24;73.06;101861.47;5075441;28;20024;-66
2022/05/15 03:13:48;;;;;;;30.83;11.55;;;;;;;11.40;73.36;101880.75;5075314;28;20043;-65
2022/05/15 03:16:16;;;;;;;27.33;10.90;;;;;;;11.14;73.24;101844.91;5075846;28;20024;-65
2022/05/15 03:18:47;;;;;;;25.75;10.55;;;;;;;11.33;73.53;101878.31;5073867;28;20627;-64
2022/05/15 03:21:28;;;;;;;27.20;12.18;;;;;;;11.27;73.21;101879.44;5074114;28;20040;-64
2022/05/15 03:24:14;;;;;;;29.08;11.02;;;;;;;11.17;73.65;101869.28;5059435;28;20123;-64
2022/05/15 03:26:42;;;;;;;25.48;10.82;;;;;;;11.21;74.55;101875.88;5075128;28;20129;-64
2022/05/15 03:29:09;;;;;;;27.65;10.95;;;;;;;11.04;73.50;101848.56;5075106;28;20115;-64
2022/05/15 03:31:35;;;;;;;26.63;10.63;;;;;;;11.16;73.86;101862.06;5074224;28;20017;-64
2022/05/15 03:34:05;;;;;;;30.25;11.10;;;;;;;11.11;74.08;101867.63;5075592;28;20468;-65
2022/05/15 03:36:31;;;;;;;31.95;11.55;;;;;;;11.16;74.35;101875.91;5074792;28;20478;-65
2022/05/15 03:38:57;;;;;;;27.50;11.38;;;;;;;11.07;74.45;101861.00;5074713;28;20047;-65
2022/05/15 03:41:22;;;;;;;26.48;11.43;;;;;;;11.08;74.41;101869.03;5075354;28;20038;-65
2022/05/15 03:43:47;;;;;;;25.92;11.05;;;;;;;10.95;74.13;101832.81;5075147;28;20032;-65
2022/05/15 03:46:13;;;;;;;27.05;11.70;;;;;;;10.90;74.32;101831.75;5075266;28;20491;-64
2022/05/15 03:48:39;;;;;;;27.77;11.73;;;;;;;10.99;74.15;101845.81;5075295;28;20341;-64
2022/05/15 03:51:04;;;;;;;27.92;12.30;;;;;;;11.11;74.31;101866.81;5074823;28;20024;-64
2022/05/15 03:53:30;;;;;;;28.23;12.02;;;;;;;11.10;74.87;101868.72;5073344;28;20024;-64
2022/05/15 03:55:58;;;;;;;26.60;10.95;;;;;;;10.91;74.47;101838.09;5073617;28;20451;-64
2022/05/15 03:58:25;;;;;;;29.10;11.55;;;;;;;11.04;74.35;101858.78;5074897;28;20321;-65
2022/05/15 04:00:51;;;;;;;28.23;11.57;;;;;;;11.09;74.63;101875.41;5074981;28;20028;-64
2022/05/15 04:03:16;;;;;;;27.17;11.73;;;;;;;11.11;74.66;101873.16;5073311;28;20021;-64
2022/05/15 04:05:41;;;;;;;26.95;12.43;;;;;;;11.02;74.69;101861.00;5074688;28;20055;-64
2022/05/15 04:08:07;;;;;;;27.85;11.25;;;;;;;11.07;74.72;101872.09;5073562;28;20122;-64
2022/05/15 04:10:32;;;;;;;29.52;10.88;;;;;;;10.98;74.59;101848.88;5074710;28;20086;-64
2022/05/15 04:12:58;;;;;;;29.70;11.52;;;;;;;11.13;74.53;101872.88;5074178;28;20031;-65
2022/05/15 04:15:23;;;;;;;26.50;11.15;;;;;;;10.98;75.12;101846.91;5072865;28;20028;-66
2022/05/15 04:17:50;;;;;;;29.98;11.93;;;;;;;10.97;74.98;101838.91;5074417;28;20055;-66
2022/05/15 04:20:20;;;;;;;28.35;11.45;;;;;;;11.02;74.97;101849.94;5072840;28;20036;-66
2022/05/15 04:22:45;;;;;;;26.83;10.90;;;;;;;10.98;74.81;101837.78;5073674;28;20029;-66
2022/05/15 04:25:12;;;;;;;25.73;10.88;;;;;;;11.07;74.56;101847.97;5072875;28;20043;-66
2022/05/15 04:27:38;;;;;;;27.88;11.27;;;;;;;11.16;74.36;101852.91;5072631;28;20032;-66
2022/05/15 04:30:04;;;;;;;26.17;10.57;;;;;;;11.36;74.29;101883.28;5074056;28;20114;-67
2022/05/15 04:32:29;;;;;;;27.08;10.30;;;;;;;11.41;74.46;101882.41;5055782;28;20127;-67
2022/05/15 04:34:55;;;;;;;28.30;10.57;;;;;;;11.46;73.89;101881.56;5072124;28;20032;-67
2022/05/15 04:37:20;;;;;;;26.90;10.75;;;;;;;11.49;73.63;101889.31;5073854;28;20024;-66
2022/05/15 04:39:45;;;;;;;26.63;10.88;;;;;;;11.53;73.54;101891.22;5073685;28;20488;-66
2022/05/15 04:42:11;;;;;;;26.77;10.88;;;;;;;11.40;73.40;101858.59;5073858;28;20108;-66
2022/05/15 04:44:37;;;;;;;30.80;10.98;;;;;;;11.60;73.49;101878.97;5073620;28;20033;-68
2022/05/15 04:47:02;;;;;;;25.60;11.00;;;;;;;11.35;73.29;101837.28;5073580;28;20116;-67
2022/05/15 04:49:27;;;;;;;26.35;11.25;;;;;;;11.48;73.21;101848.84;5073389;28;20103;-68
2022/05/15 04:51:53;;;;;;;29.27;11.18;;;;;;;11.38;73.37;101839.50;5073251;28;20372;-67
2022/05/15 04:54:18;;;;;;;28.13;11.73;;;;;;;11.57;73.42;101862.94;5073275;28;20031;-67
2022/05/15 04:56:43;;;;;;;31.75;11.57;;;;;;;11.55;73.49;101843.81;5073597;28;20338;-67
2022/05/15 04:59:09;;;;;;;27.08;11.73;;;;;;;11.64;73.18;101855.94;5073412;28;20078;-67
2022/05/15 05:01:34;;;;;;;26.98;10.93;;;;;;;11.84;73.48;101879.06;5073369;28;20123;-67
2022/05/15 05:04:00;;;;;;;27.98;12.38;;;;;;;11.77;73.31;101859.16;5073169;28;20116;-68
2022/05/15 05:06:27;;;;;;;28.45;11.48;;;;;;;11.78;73.09;101858.06;5073375;28;20460;-69
2022/05/15 05:08:53;;;;;;;29.90;12.57;;;;;;;11.93;73.09;101877.34;5072534;28;20090;-67
2022/05/15 05:11:18;;;;;;;34.88;13.18;;;;;;;11.90;72.98;101871.53;5072046;28;20449;-68
2022/05/15 05:13:44;;;;;;;28.73;11.52;;;;;;;11.95;73.06;101886.19;5073209;28;20024;-66
2022/05/15 05:16:09;;;;;;;30.77;12.50;;;;;;;11.92;73.08;101867.34;5073460;28;20085;-67
2022/05/15 05:18:35;;;;;;;25.52;12.18;;;;;;;12.12;73.20;101894.13;5071299;28;20360;-67
2022/05/15 05:21:00;;;;;;;27.75;11.90;;;;;;;12.16;72.43;101884.09;5073398;28;20029;-66
2022/05/15 05:23:26;;;;;;;26.23;12.10;;;;;;;12.11;72.48;101861.13;5073017;28;20051;-66
2022/05/15 05:25:51;;;;;;;26.63;12.27;;;;;;;12.22;72.32;101865.44;5072719;28;20282;-66
2022/05/15 05:28:17;;;;;;;29.27;13.45;;;;;;;12.30;72.33;101872.31;5073189;28;20104;-67
2022/05/15 05:30:43;;;;;;;30.52;13.18;;;;;;;12.43;72.15;101893.81;5071464;28;20437;-66
2022/05/15 05:33:08;;;;;;;31.17;13.35;;;;;;;12.55;71.68;101898.16;5072640;28;20027;-66
2022/05/15 05:35:36;;;;;;;29.80;13.38;;;;;;;12.50;72.06;101879.59;5071146;28;20024;-66
2022/05/15 05:38:02;;;;;;;28.00;12.05;;;;;;;12.67;71.62;101893.03;5072679;28;20044;-66
2022/05/15 05:40:28;;;;;;;29.08;12.55;;;;;;;12.60;71.71;101862.84;5072384;28;20040;-66
2022/05/15 05:42:53;;;;;;;29.75;12.77;;;;;;;12.58;71.25;101848.41;5072468;28;20028;-67
2022/05/15 05:45:19;;;;;;;29.02;13.30;;;;;;;12.90;71.06;101869.16;5072685;28;20040;-65
2022/05/15 05:47:47;;;;;;;31.15;13.20;;;;;;;12.88;70.79;101849.16;5071518;28;20040;-65
2022/05/15 05:50:14;;;;;;;30.40;13.13;;;;;;;13.17;70.86;101884.34;5071537;28;20457;-65
2022/05/15 05:52:40;;;;;;;31.23;13.68;;;;;;;13.25;70.16;101877.31;5072891;28;20032;-65
2022/05/15 05:55:10;;;;;;;29.98;13.55;;;;;;;13.25;70.43;101868.97;5071670;28;20032;-65
2022/05/15 05:57:36;;;;;;;27.85;13.20;;;;;;;13.47;70.28;101887.03;5071155;28;20025;-65
2022/05/15 06:00:03;;;;;;;27.70;13.50;;;;;;;13.53;69.67;101880.28;5071262;28;20027;-65
2022/05/15 06:02:29;;;;;;;28.50;13.48;;;;;;;13.52;69.22;101865.53;5071113;28;20056;-66
2022/05/15 06:04:54;;;;;;;31.95;14.27;;;;;;;13.75;68.91;101887.16;5072782;28;20128;-67
2022/05/15 06:07:23;;;;;;;30.05;13.30;;;;;;;13.78;68.60;101867.94;5072662;28;20027;-67
2022/05/15 06:09:50;;;;;;;29.67;14.27;;;;;;;13.92;68.69;101876.34;5071284;28;20020;-67
2022/05/15 06:12:18;;;;;;;29.27;13.77;;;;;;;13.95;68.33;101866.53;5072365;28;20024;-67
2022/05/15 06:14:43;;;;;;;26.55;13.93;;;;;;;14.11;68.33;101879.06;5072257;28;20047;-67
2022/05/15 06:17:09;;;;;;;28.52;14.20;;;;;;;14.22;67.51;101887.22;5072186;28;20052;-67
2022/05/15 06:19:34;;;;;;;27.85;14.15;;;;;;;14.35;67.18;101878.09;5071848;28;20028;-66
2022/05/15 06:22:00;;;;;;;30.25;14.20;;;;;;;14.49;67.29;101880.88;5072390;28;20086;-66
2022/05/15 06:24:26;;;;;;;28.30;14.75;;;;;;;14.61;66.73;101878.41;5072556;28;20020;-67
2022/05/15 06:26:52;;;;;;;27.38;13.57;;;;;;;14.70;66.41;101873.00;5072571;28;20045;-67
2022/05/15 06:29:18;;;;;;;27.33;13.40;;;;;;;14.83;65.81;101882.47;5072309;28;20027;-69
2022/05/15 06:31:46;;;;;;;26.98;14.07;;;;;;;14.91;65.55;101876.16;5072260;28;20099;-68
2022/05/15 06:34:13;;;;;;;26.58;14.23;;;;;;;14.98;65.54;101872.97;5072908;28;20024;-69
2022/05/15 06:36:39;;;;;;;29.27;14.63;;;;;;;15.09;65.53;101879.13;5072642;28;20025;-68
2022/05/15 06:39:04;;;;;;;25.55;14.77;;;;;;;15.16;64.41;101875.94;5072523;28;20106;-68
2022/05/15 06:41:30;;;;;;;26.88;13.63;;;;;;;15.25;64.63;101876.84;5072491;28;20035;-67
2022/05/15 06:43:55;;;;;;;28.60;14.88;;;;;;;15.38;64.36;101880.75;5073191;28;20028;-68
2022/05/15 06:46:21;;;;;;;26.88;14.52;;;;;;;15.53;64.40;101882.34;5072548;28;20522;-67
2022/05/15 06:48:46;;;;;;;28.63;14.73;;;;;;;15.68;64.30;101875.59;5071767;28;20047;-67
2022/05/15 06:51:16;;;;;;;31.23;16.23;;;;;;;15.71;62.94;101883.34;5072092;28;20514;-67
2022/05/15 06:53:41;;;;;;;28.45;14.88;;;;;;;15.80;63.56;101889.81;5071943;28;20514;-67
2022/05/15 06:58:51;;;;;;;;;;;;;;;16.09;63.59;101876.56;5072602;28;20090;-66
2022/05/15 07:01:16;;;;;;;27.95;15.75;;;;;;;16.17;62.27;101873.84;5072208;28;19916;-67
2022/05/15 07:03:41;;;;;;;29.60;15.15;;;;;;;16.36;61.55;101867.19;5072162;28;20089;-66
2022/05/15 07:06:07;;;;;;;27.50;15.63;;;;;;;16.43;61.13;101866.75;5072067;28;20123;-67
2022/05/15 07:08:33;;;;;;;30.02;16.00;;;;;;;16.57;61.31;101870.25;5070846;28;20086;-66
2022/05/15 07:10:58;;;;;;;28.38;16.58;;;;;;;16.72;61.34;101876.56;5070559;28;20032;-66
2022/05/15 07:13:25;;;;;;;26.15;14.98;;;;;;;16.81;60.43;101875.41;5049982;28;20139;-65
2022/05/15 07:15:50;;;;;;;29.83;17.00;;;;;;;16.89;60.60;101882.19;5050632;28;20090;-67
2022/05/15 07:18:16;;;;;;;26.65;15.38;;;;;;;17.01;60.40;101884.38;5049329;28;20041;-65
2022/05/15 07:20:41;;;;;;;29.45;16.63;;;;;;;17.09;58.72;101878.00;5050526;28;20025;-67
2022/05/15 07:23:19;;;;;;;28.15;17.10;;;;;;;17.14;58.38;101872.22;5049737;28;20457;-65
2022/05/15 07:25:45;;;;;;;29.48;16.80;;;;;;;17.31;58.18;101882.63;5048979;28;20049;-65
2022/05/15 07:28:11;;;;;;;28.50;16.90;;;;;;;17.38;58.28;101889.72;5048842;28;20346;-66
2022/05/15 07:30:39;;;;;;;25.83;17.13;;;;;;;17.30;57.96;101866.19;5050391;28;20024;-66
2022/05/15 07:33:06;;;;;;;29.90;16.70;;;;;;;17.49;57.22;101882.63;5050080;28;20048;-64
2022/05/15 07:35:37;;;;;;;27.92;16.13;;;;;;;17.53;57.60;101868.81;5065669;28;20182;-66
2022/05/15 07:38:02;;;;;;;29.60;16.83;;;;;;;17.66;56.80;101881.03;5049987;28;20067;-62
2022/05/15 07:40:28;;;;;;;25.60;15.45;;;;;;;17.72;56.48;101876.88;5049627;28;20036;-59
2022/05/15 07:42:59;;;;;;;27.27;14.80;;;;;;;17.85;56.12;101884.31;5051805;28;20029;-65
2022/05/15 07:45:30;;;;;;;27.55;15.77;;;;;;;17.96;56.46;101878.34;5051872;28;20568;-64
2022/05/15 07:47:55;;;;;;;28.55;14.75;;;;;;;18.04;56.59;101853.16;5053316;28;20051;-65
2022/05/15 07:50:21;;;;;;;25.30;14.52;;;;;;;18.16;56.15;101849.66;5053250;28;20423;-63
2022/05/15 07:52:47;;;;;;;28.80;14.65;;;;;;;18.44;54.89;101870.84;5053057;28;20036;-64
2022/05/15 07:55:13;;;;;;;27.83;15.27;;;;;;;18.34;54.77;101841.19;5051506;28;20060;-65
2022/05/15 07:57:38;;;;;;;29.98;15.18;;;;;;;18.57;54.76;101869.78;5052882;28;20028;-65
2022/05/15 08:00:19;;;;;;;;;;;;;;;;;;;;;
2022/05/15 08:02:46;;;;;;;24.08;14.77;;;;;;;18.88;53.20;101867.84;5071103;28;20029;-65
2022/05/15 08:08:02;;;;;;;24.52;14.35;;;;;;;19.05;52.51;101869.72;5072680;28;20127;-62
2022/05/15 08:10:32;;;;;;;25.10;13.93;;;;;;;19.01;52.46;101845.19;5072511;28;20040;-64
2022/05/15 08:12:57;;;;;;;25.02;13.68;;;;;;;19.20;51.77;101849.53;5072770;28;20024;-64
2022/05/15 08:15:26;;;;;;;26.48;14.70;;;;;;;19.48;52.02;101863.81;5070467;28;20025;-65
2022/05/15 08:17:52;;;;;;;25.30;13.88;;;;;;;19.62;51.41;101860.72;5071349;28;20032;-64
2022/05/15 08:25:46;;;;;;;;;;;;;;;19.77;52.05;101856.47;5073181;28;20118;-63
2022/05/15 08:28:11;;;;;;;24.85;13.45;;;;;;;19.92;50.44;101846.59;5072389;28;19921;-64
2022/05/15 08:30:37;;;;;;;25.73;13.50;;;;;;;20.03;49.37;101841.34;5070886;28;20029;-65
2022/05/15 08:33:04;;;;;;;25.52;13.70;;;;;;;20.18;48.33;101845.47;5072134;28;20109;-64
2022/05/15 08:35:29;;;;;;;29.05;15.95;;;;;;;20.25;48.06;101837.31;5072169;28;20029;-65
2022/05/15 08:37:59;;;;;;;25.45;13.48;;;;;;;20.22;47.96;101825.94;5071999;28;20055;-65
2022/05/15 08:40:28;;;;;;;25.30;13.40;;;;;;;20.19;47.36;101824.66;5072249;28;20036;-64
2022/05/15 08:42:56;;;;;;;23.88;12.50;;;;;;;20.16;47.12;101805.72;5072514;28;20035;-64
2022/05/15 08:45:29;;;;;;;23.02;12.25;;;;;;;20.30;47.55;101807.34;5069383;28;20392;-64
2022/05/15 08:48:21;;;;;;;23.35;13.10;;;;;;;20.54;47.35;101824.25;5069260;28;20032;-64
2022/05/15 08:50:49;;;;;;;25.20;13.00;;;;;;;20.52;45.88;101797.63;5067284;28;20505;-64
2022/05/15 08:53:25;;;;;;;27.55;12.93;;;;;;;20.67;46.88;101796.94;5070514;28;20036;-64
2022/05/15 08:55:59;;;;;;;24.05;12.75;;;;;;;20.85;43.95;101819.22;5071355;28;20469;-64
2022/05/15 08:58:47;;;;;;;23.05;12.32;;;;;;;20.88;45.50;101805.25;5071461;28;20025;-65
2022/05/15 09:01:17;;;;;;;25.83;12.40;;;;;;;21.02;44.28;101801.22;5070508;28;20063;-65
2022/05/15 09:03:43;;;;;;;23.63;11.82;;;;;;;21.03;43.77;101786.81;5070320;28;20048;-64
2022/05/15 09:06:42;;;;;;;22.40;11.52;;;;;;;21.27;43.63;101818.06;5070369;28;20502;-64
2022/05/15 09:09:35;;;;;;;22.08;11.20;;;;;;;21.39;43.27;101811.56;5070251;28;20035;-65
2022/05/15 09:12:04;;;;;;;24.00;11.23;;;;;;;21.48;40.48;101817.88;5071649;28;20031;-65
2022/05/15 09:14:35;;;;;;;22.95;10.82;;;;;;;21.57;40.10;101817.72;5071869;28;20024;-65
2022/05/15 09:17:32;;;;;;;22.45;10.05;;;;;;;21.60;40.86;101795.31;5072233;28;20559;-63
2022/05/15 09:20:00;;;;;;;23.40;10.35;;;;;;;21.72;38.68;101802.88;5070899;28;20119;-63
2022/05/15 09:22:30;;;;;;;22.60;10.88;;;;;;;21.68;39.69;101787.06;5069932;28;20029;-64
2022/05/15 09:24:56;;;;;;;22.83;10.35;;;;;;;21.94;38.50;101809.13;5070268;28;20032;-64
2022/05/15 09:27:26;;;;;;;23.33;10.43;;;;;;;21.93;38.27;101802.66;5071627;28;20023;-64
2022/05/15 09:30:01;;;;;;;24.50;11.10;;;;;;;21.97;38.96;101788.66;5070317;28;20472;-64
2022/05/15 09:32:28;;;;;;;22.83;10.27;;;;;;;22.18;37.97;101802.50;5070092;28;20043;-65
2022/05/15 09:34:56;;;;;;;22.02;10.02;;;;;;;22.31;38.02;101791.13;5070353;28;20050;-67
2022/05/15 09:40:19;;;;;;;23.92;10.93;;;;;;;22.51;37.23;101795.69;5071836;28;20050;-64
2022/05/15 09:45:55;;;;;;;21.73;10.35;;;;;;;22.39;35.69;101779.66;5071386;28;20039;-63
2022/05/15 09:48:24;;;;;;;22.17;9.98;;;;;;;22.48;33.99;101799.25;5071275;28;20366;-65
2022/05/15 09:50:52;;;;;;;22.42;10.27;;;;;;;22.47;35.00;101791.97;5070085;28;20229;-64
2022/05/15 09:53:25;;;;;;;23.35;10.50;;;;;;;22.47;36.51;101772.25;5069916;28;20028;-64
2022/05/15 09:56:00;;;;;;;23.65;10.10;;;;;;;22.70;37.22;101782.81;5071428;28;20468;-63
2022/05/15 09:58:40;;;;;;;22.92;10.05;;;;;;;22.66;37.38;101763.00;5070334;28;20020;-65
2022/05/15 10:01:14;;;;;;;22.13;9.65;;;;;;;22.75;37.28;101751.53;5070370;28;20028;-64
2022/05/15 10:03:39;;;;;;;20.77;9.77;;;;;;;22.83;36.28;101764.59;5070714;28;20040;-65
2022/05/15 10:06:08;;;;;;;23.63;10.35;;;;;;;22.94;35.49;101770.47;5051659;28;20059;-65
2022/05/15 10:08:34;;;;;;;22.02;10.10;;;;;;;22.59;35.47;101755.19;5070835;28;20464;-63
2022/05/15 10:11:04;;;;;;;22.50;9.10;;;;;;;22.69;35.65;101753.81;5070350;28;20138;-63
2022/05/15 10:13:36;;;;;;;22.98;10.80;;;;;;;22.86;35.34;101774.31;5068768;28;20028;-65
2022/05/15 10:16:21;;;;;;;21.75;9.73;;;;;;;23.00;36.16;101780.28;5068101;28;20488;-65
2022/05/15 10:18:57;;;;;;;22.55;9.60;;;;;;;23.12;34.83;101779.34;5068356;28;20071;-65
2022/05/15 10:21:27;;;;;;;20.63;9.75;;;;;;;23.27;35.14;101772.03;5066019;28;20078;-63
2022/05/15 10:24:02;;;;;;;21.23;9.80;;;;;;;23.29;34.44;101766.78;5068700;28;20456;-65
2022/05/15 10:26:35;;;;;;;24.75;9.52;;;;;;;23.49;35.05;101761.97;5068708;28;20056;-63
2022/05/15 10:29:36;;;;;;;22.23;8.50;;;;;;;23.63;34.57;101769.91;5069081;28;20043;-64
2022/05/15 10:32:29;;;;;;;18.27;8.10;;;;;;;23.40;32.74;101763.38;5069643;28;20039;-64
2022/05/15 10:34:56;;;;;;;19.90;8.05;;;;;;;23.43;33.56;101760.63;5058485;28;20045;-64
2022/05/15 10:37:44;;;;;;;21.10;8.45;;;;;;;23.58;33.93;101764.53;5069975;28;20025;-66
2022/05/15 10:40:24;;;;;;;19.25;8.35;;;;;;;23.56;33.61;101747.19;5070753;28;20040;-64
2022/05/15 10:43:14;;;;;;;20.63;8.00;;;;;;;23.61;32.42;101763.00;5071146;28;20117;-66
2022/05/15 10:45:49;;;;;;;26.95;8.70;;;;;;;23.51;32.30;101756.78;5070686;28;20033;-64
2022/05/15 10:48:52;;;;;;;20.25;8.60;;;;;;;23.57;34.42;101747.97;5070529;28;20085;-64
2022/05/15 10:51:29;;;;;;;20.33;7.70;;;;;;;23.65;32.57;101741.28;5070871;28;20076;-63
2022/05/15 11:00:05;;;;;;;20.13;9.00;;;;;;;24.17;32.00;101729.69;5070701;28;20040;-63
2022/05/15 11:03:09;;;;;;;19.92;8.73;;;;;;;24.26;32.45;101735.91;5070518;28;20471;-63
2022/05/15 11:05:45;;;;;;;21.40;8.90;;;;;;;24.10;32.30;101736.03;5069233;28;20029;-64
2022/05/15 11:08:34;;;;;;;20.35;8.73;;;;;;;24.05;32.39;101737.16;5070143;28;20039;-63
2022/05/15 11:11:28;;;;;;;19.25;8.43;;;;;;;23.99;32.28;101736.66;5068093;28;20498;-64
2022/05/15 11:14:16;;;;;;;22.00;8.68;;;;;;;23.86;31.98;101728.72;5067920;28;20082;-64
2022/05/15 11:16:59;;;;;;;21.67;9.00;;;;;;;23.75;31.98;101717.25;5054970;28;20032;-64
2022/05/15 11:19:40;;;;;;;19.75;8.20;;;;;;;24.00;32.61;101737.47;5072021;28;20111;-63
2022/05/15 11:22:31;;;;;;;19.48;8.50;;;;;;;24.06;31.48;101721.84;5073431;28;20036;-63
2022/05/15 11:25:13;;;;;;;18.02;7.95;;;;;;;24.06;31.23;101732.31;5072319;28;20066;-63
2022/05/15 11:27:51;;;;;;;21.25;8.18;;;;;;;24.09;30.57;101706.13;5072802;28;20028;-65
2022/05/15 11:30:16;;;;;;;20.02;8.15;;;;;;;24.42;30.11;101727.22;5073466;28;20031;-64
2022/05/15 11:32:58;;;;;;;20.47;7.93;;;;;;;24.40;29.50;101685.19;5072729;28;20025;-64
2022/05/15 11:35:30;;;;;;;21.55;8.35;;;;;;;24.53;31.18;101682.16;5072600;28;20381;-64
2022/05/15 11:38:27;;;;;;;24.27;8.90;;;;;;;24.81;31.49;101704.38;5070944;28;20483;-62
2022/05/15 11:40:53;;;;;;;21.63;8.15;;;;;;;24.82;30.51;101686.19;5071735;28;20052;-64
2022/05/15 11:43:36;;;;;;;21.08;8.52;;;;;;;25.07;31.41;101694.19;5073155;28;20033;-63
2022/05/15 11:46:09;;;;;;;19.75;8.02;;;;;;;25.05;29.37;101682.44;5072769;28;20456;-63
2022/05/15 11:48:38;;;;;;;22.02;8.27;;;;;;;25.13;29.73;101681.31;5071618;28;20135;-64